sensor_id;sensor_type;location;lat;lon;timestamp;P1;durP1;ratioP1;P2;durP2;ratioP2
18580;SDS011;9420;50.876;7.012;2023-05-16T00:00:45;8.00;;;2.90;;
18580;SDS011;9420;50.876;7.012;2023-05-16T00:03:13;10.47;;;3.37;;
18580;SDS011;9420;50.876;7.012;2023-05-16T00:05:40;4.33;;;2.73;;
18580;SDS011;9420;50.876;7.012;2023-05-16T00:08:06;8.27;;;2.90;;
18580;SDS011;9420;50.876;7.012;2023-05-16T00:10:35;5.07;;;3.67;;
18580;SDS011;9420;50.876;7.012;2023-05-16T00:13:02;7.43;;;3.10;;
18580;SDS011;9420;50.876;7.012;2023-05-16T00:15:31;6.23;;;3.27;;
18580;SDS011;9420;50.876;7.012;2023-05-16T00:17:58;6.10;;;3.03;;
18580;SDS011;9420;50.876;7.012;2023-05-16T00:20:26;12.30;;;3.80;;
18580;SDS011;9420;50.876;7.012;2023-05-16T00:22:53;6.33;;;2.80;;
18580;SDS011;9420;50.876;7.012;2023-05-16T00:25:25;6.07;;;3.50;;
18580;SDS011;9420;50.876;7.012;2023-05-16T00:27:53;7.97;;;3.50;;
18580;SDS011;9420;50.876;7.012;2023-05-16T00:30:21;6.40;;;3.60;;
18580;SDS011;9420;50.876;7.012;2023-05-16T00:32:48;8.33;;;4.70;;
18580;SDS011;9420;50.876;7.012;2023-05-16T00:35:15;10.60;;;4.77;;
18580;SDS011;9420;50.876;7.012;2023-05-16T00:37:42;7.80;;;5.10;;
18580;SDS011;9420;50.876;7.012;2023-05-16T00:40:09;10.57;;;5.07;;
18580;SDS011;9420;50.876;7.012;2023-05-16T00:42:37;10.63;;;5.50;;
18580;SDS011;9420;50.876;7.012;2023-05-16T00:45:06;8.40;;;5.67;;
18580;SDS011;9420;50.876;7.012;2023-05-16T00:47:36;11.30;;;6.17;;
18580;SDS011;9420;50.876;7.012;2023-05-16T00:50:03;10.63;;;5.87;;
18580;SDS011;9420;50.876;7.012;2023-05-16T00:52:31;9.53;;;5.97;;
18580;SDS011;9420;50.876;7.012;2023-05-16T00:54:58;11.17;;;7.03;;
18580;SDS011;9420;50.876;7.012;2023-05-16T00:57:26;9.60;;;7.40;;
18580;SDS011;9420;50.876;7.012;2023-05-16T00:59:53;15.23;;;5.87;;
18580;SDS011;9420;50.876;7.012;2023-05-16T01:02:22;9.50;;;6.73;;
18580;SDS011;9420;50.876;7.012;2023-05-16T01:04:52;8.90;;;6.93;;
18580;SDS011;9420;50.876;7.012;2023-05-16T01:07:20;14.27;;;8.70;;
18580;SDS011;9420;50.876;7.012;2023-05-16T01:09:48;11.43;;;8.23;;
18580;SDS011;9420;50.876;7.012;2023-05-16T01:12:17;17.50;;;10.17;;
18580;SDS011;9420;50.876;7.012;2023-05-16T01:14:55;17.70;;;12.77;;
18580;SDS011;9420;50.876;7.012;2023-05-16T01:17:35;16.13;;;11.80;;
18580;SDS011;9420;50.876;7.012;2023-05-16T01:20:21;20.20;;;13.27;;
18580;SDS011;9420;50.876;7.012;2023-05-16T01:23:03;16.43;;;12.47;;
18580;SDS011;9420;50.876;7.012;2023-05-16T01:25:47;22.07;;;13.87;;
18580;SDS011;9420;50.876;7.012;2023-05-16T01:28:30;15.70;;;11.17;;
18580;SDS011;9420;50.876;7.012;2023-05-16T01:30:59;13.40;;;10.30;;
18580;SDS011;9420;50.876;7.012;2023-05-16T01:33:27;14.27;;;11.13;;
18580;SDS011;9420;50.876;7.012;2023-05-16T01:35:55;15.53;;;10.80;;
18580;SDS011;9420;50.876;7.012;2023-05-16T01:38:34;12.73;;;9.77;;
18580;SDS011;9420;50.876;7.012;2023-05-16T01:41:11;18.40;;;11.43;;
18580;SDS011;9420;50.876;7.012;2023-05-16T01:43:51;16.63;;;10.60;;
18580;SDS011;9420;50.876;7.012;2023-05-16T01:46:25;11.73;;;9.47;;
18580;SDS011;9420;50.876;7.012;2023-05-16T01:49:01;16.10;;;12.07;;
18580;SDS011;9420;50.876;7.012;2023-05-16T01:51:41;16.90;;;12.47;;
18580;SDS011;9420;50.876;7.012;2023-05-16T01:54:15;15.63;;;11.80;;
18580;SDS011;9420;50.876;7.012;2023-05-16T01:56:48;18.43;;;13.17;;
18580;SDS011;9420;50.876;7.012;2023-05-16T01:59:19;17.57;;;13.70;;
18580;SDS011;9420;50.876;7.012;2023-05-16T02:01:48;18.67;;;14.13;;
18580;SDS011;9420;50.876;7.012;2023-05-16T02:04:18;20.93;;;15.03;;
18580;SDS011;9420;50.876;7.012;2023-05-16T02:06:45;16.83;;;12.60;;
18580;SDS011;9420;50.876;7.012;2023-05-16T02:09:13;17.80;;;13.60;;
18580;SDS011;9420;50.876;7.012;2023-05-16T02:11:40;19.17;;;14.23;;
18580;SDS011;9420;50.876;7.012;2023-05-16T02:14:08;20.13;;;14.73;;
18580;SDS011;9420;50.876;7.012;2023-05-16T02:16:36;23.33;;;16.97;;
18580;SDS011;9420;50.876;7.012;2023-05-16T02:19:03;19.43;;;15.70;;
18580;SDS011;9420;50.876;7.012;2023-05-16T02:21:30;22.07;;;15.87;;
18580;SDS011;9420;50.876;7.012;2023-05-16T02:23:57;21.93;;;15.90;;
18580;SDS011;9420;50.876;7.012;2023-05-16T02:26:24;21.73;;;14.77;;
18580;SDS011;9420;50.876;7.012;2023-05-16T02:28:51;22.67;;;15.97;;
18580;SDS011;9420;50.876;7.012;2023-05-16T02:31:26;24.73;;;16.27;;
18580;SDS011;9420;50.876;7.012;2023-05-16T02:33:54;29.03;;;17.77;;
18580;SDS011;9420;50.876;7.012;2023-05-16T02:36:22;26.33;;;17.63;;
18580;SDS011;9420;50.876;7.012;2023-05-16T02:38:49;19.47;;;15.43;;
18580;SDS011;9420;50.876;7.012;2023-05-16T02:41:16;20.60;;;14.77;;
18580;SDS011;9420;50.876;7.012;2023-05-16T02:43:46;16.77;;;12.13;;
18580;SDS011;9420;50.876;7.012;2023-05-16T02:46:20;14.80;;;7.63;;
18580;SDS011;9420;50.876;7.012;2023-05-16T02:48:50;9.83;;;6.27;;
18580;SDS011;9420;50.876;7.012;2023-05-16T02:51:18;9.70;;;5.20;;
18580;SDS011;9420;50.876;7.012;2023-05-16T02:53:47;12.57;;;5.80;;
18580;SDS011;9420;50.876;7.012;2023-05-16T02:56:14;9.03;;;5.07;;
18580;SDS011;9420;50.876;7.012;2023-05-16T02:58:41;12.40;;;5.30;;
18580;SDS011;9420;50.876;7.012;2023-05-16T03:01:10;13.27;;;5.33;;
18580;SDS011;9420;50.876;7.012;2023-05-16T03:03:37;13.10;;;5.33;;
18580;SDS011;9420;50.876;7.012;2023-05-16T03:06:06;11.83;;;3.87;;
18580;SDS011;9420;50.876;7.012;2023-05-16T03:08:33;11.87;;;4.70;;
18580;SDS011;9420;50.876;7.012;2023-05-16T03:11:00;9.17;;;4.27;;
18580;SDS011;9420;50.876;7.012;2023-05-16T03:13:27;14.87;;;4.67;;
18580;SDS011;9420;50.876;7.012;2023-05-16T03:15:55;13.07;;;4.80;;
18580;SDS011;9420;50.876;7.012;2023-05-16T03:18:22;13.67;;;4.33;;
18580;SDS011;9420;50.876;7.012;2023-05-16T03:20:49;9.63;;;3.40;;
18580;SDS011;9420;50.876;7.012;2023-05-16T03:23:18;13.57;;;4.50;;
18580;SDS011;9420;50.876;7.012;2023-05-16T03:25:45;10.63;;;4.23;;
18580;SDS011;9420;50.876;7.012;2023-05-16T03:28:13;11.87;;;4.43;;
18580;SDS011;9420;50.876;7.012;2023-05-16T03:30:41;13.10;;;4.47;;
18580;SDS011;9420;50.876;7.012;2023-05-16T03:33:09;15.20;;;4.80;;
18580;SDS011;9420;50.876;7.012;2023-05-16T03:35:36;18.10;;;4.70;;
18580;SDS011;9420;50.876;7.012;2023-05-16T03:38:03;13.87;;;5.17;;
18580;SDS011;9420;50.876;7.012;2023-05-16T03:40:32;19.13;;;5.40;;
18580;SDS011;9420;50.876;7.012;2023-05-16T03:42:59;10.47;;;4.63;;
18580;SDS011;9420;50.876;7.012;2023-05-16T03:45:26;13.37;;;4.63;;
18580;SDS011;9420;50.876;7.012;2023-05-16T03:47:54;19.77;;;4.73;;
18580;SDS011;9420;50.876;7.012;2023-05-16T03:50:21;16.50;;;5.60;;
18580;SDS011;9420;50.876;7.012;2023-05-16T03:52:48;16.77;;;4.83;;
18580;SDS011;9420;50.876;7.012;2023-05-16T03:55:16;15.73;;;4.47;;
18580;SDS011;9420;50.876;7.012;2023-05-16T03:57:45;16.60;;;5.47;;
18580;SDS011;9420;50.876;7.012;2023-05-16T04:00:14;19.27;;;5.20;;
18580;SDS011;9420;50.876;7.012;2023-05-16T04:02:42;14.30;;;4.97;;
18580;SDS011;9420;50.876;7.012;2023-05-16T04:05:09;17.87;;;5.90;;
18580;SDS011;9420;50.876;7.012;2023-05-16T04:07:38;17.30;;;4.43;;
18580;SDS011;9420;50.876;7.012;2023-05-16T04:10:06;16.07;;;4.60;;
18580;SDS011;9420;50.876;7.012;2023-05-16T04:12:35;15.03;;;4.30;;
18580;SDS011;9420;50.876;7.012;2023-05-16T04:15:04;17.73;;;4.63;;
18580;SDS011;9420;50.876;7.012;2023-05-16T04:17:32;18.63;;;4.93;;
18580;SDS011;9420;50.876;7.012;2023-05-16T04:20:00;16.77;;;4.70;;
18580;SDS011;9420;50.876;7.012;2023-05-16T04:22:27;11.30;;;4.27;;
18580;SDS011;9420;50.876;7.012;2023-05-16T04:24:54;13.17;;;5.60;;
18580;SDS011;9420;50.876;7.012;2023-05-16T04:27:22;13.23;;;4.63;;
18580;SDS011;9420;50.876;7.012;2023-05-16T04:29:50;11.90;;;4.27;;
18580;SDS011;9420;50.876;7.012;2023-05-16T04:32:19;16.77;;;4.07;;
18580;SDS011;9420;50.876;7.012;2023-05-16T04:34:47;16.40;;;4.97;;
18580;SDS011;9420;50.876;7.012;2023-05-16T04:37:17;18.57;;;4.57;;
18580;SDS011;9420;50.876;7.012;2023-05-16T04:39:44;14.83;;;5.23;;
18580;SDS011;9420;50.876;7.012;2023-05-16T04:42:11;20.03;;;5.17;;
18580;SDS011;9420;50.876;7.012;2023-05-16T04:44:39;14.73;;;4.00;;
18580;SDS011;9420;50.876;7.012;2023-05-16T04:47:06;25.43;;;4.23;;
18580;SDS011;9420;50.876;7.012;2023-05-16T04:49:34;14.70;;;4.97;;
18580;SDS011;9420;50.876;7.012;2023-05-16T04:52:01;14.17;;;4.53;;
18580;SDS011;9420;50.876;7.012;2023-05-16T04:54:29;15.30;;;4.87;;
18580;SDS011;9420;50.876;7.012;2023-05-16T04:56:55;19.40;;;4.23;;
18580;SDS011;9420;50.876;7.012;2023-05-16T04:59:22;18.87;;;4.17;;
18580;SDS011;9420;50.876;7.012;2023-05-16T05:01:49;16.63;;;3.53;;
18580;SDS011;9420;50.876;7.012;2023-05-16T05:04:16;19.87;;;4.90;;
18580;SDS011;9420;50.876;7.012;2023-05-16T05:06:45;20.77;;;5.37;;
18580;SDS011;9420;50.876;7.012;2023-05-16T05:09:12;20.40;;;4.47;;
18580;SDS011;9420;50.876;7.012;2023-05-16T05:11:39;17.03;;;5.03;;
18580;SDS011;9420;50.876;7.012;2023-05-16T05:14:06;18.07;;;5.13;;
18580;SDS011;9420;50.876;7.012;2023-05-16T05:16:33;10.50;;;3.43;;
18580;SDS011;9420;50.876;7.012;2023-05-16T05:19:01;14.37;;;3.60;;
18580;SDS011;9420;50.876;7.012;2023-05-16T05:21:28;13.33;;;3.87;;
18580;SDS011;9420;50.876;7.012;2023-05-16T05:23:57;20.83;;;3.40;;
18580;SDS011;9420;50.876;7.012;2023-05-16T05:26:24;13.70;;;3.40;;
18580;SDS011;9420;50.876;7.012;2023-05-16T05:28:52;22.33;;;4.23;;
18580;SDS011;9420;50.876;7.012;2023-05-16T05:31:19;16.47;;;4.30;;
18580;SDS011;9420;50.876;7.012;2023-05-16T05:33:46;15.00;;;4.00;;
18580;SDS011;9420;50.876;7.012;2023-05-16T05:36:13;14.67;;;3.43;;
18580;SDS011;9420;50.876;7.012;2023-05-16T05:38:41;17.00;;;3.40;;
18580;SDS011;9420;50.876;7.012;2023-05-16T05:41:09;22.17;;;3.77;;
18580;SDS011;9420;50.876;7.012;2023-05-16T05:43:37;11.13;;;3.13;;
18580;SDS011;9420;50.876;7.012;2023-05-16T05:46:04;19.13;;;4.40;;
18580;SDS011;9420;50.876;7.012;2023-05-16T05:48:32;13.60;;;2.73;;
18580;SDS011;9420;50.876;7.012;2023-05-16T05:50:59;16.40;;;2.67;;
18580;SDS011;9420;50.876;7.012;2023-05-16T05:53:26;22.90;;;3.43;;
18580;SDS011;9420;50.876;7.012;2023-05-16T05:55:53;15.93;;;3.43;;
18580;SDS011;9420;50.876;7.012;2023-05-16T05:58:22;10.90;;;3.27;;
18580;SDS011;9420;50.876;7.012;2023-05-16T06:00:49;15.27;;;3.27;;
18580;SDS011;9420;50.876;7.012;2023-05-16T06:03:16;10.80;;;3.27;;
18580;SDS011;9420;50.876;7.012;2023-05-16T06:05:45;19.90;;;3.20;;
18580;SDS011;9420;50.876;7.012;2023-05-16T06:08:12;11.97;;;2.83;;
18580;SDS011;9420;50.876;7.012;2023-05-16T06:10:39;13.63;;;2.77;;
18580;SDS011;9420;50.876;7.012;2023-05-16T06:13:06;13.63;;;2.60;;
18580;SDS011;9420;50.876;7.012;2023-05-16T06:15:34;8.07;;;2.57;;
18580;SDS011;9420;50.876;7.012;2023-05-16T06:18:01;8.40;;;2.67;;
18580;SDS011;9420;50.876;7.012;2023-05-16T06:20:28;17.23;;;3.50;;
18580;SDS011;9420;50.876;7.012;2023-05-16T06:22:55;14.07;;;2.73;;
18580;SDS011;9420;50.876;7.012;2023-05-16T06:25:23;14.40;;;3.03;;
18580;SDS011;9420;50.876;7.012;2023-05-16T06:27:50;16.97;;;3.57;;
18580;SDS011;9420;50.876;7.012;2023-05-16T06:30:18;12.93;;;2.43;;
18580;SDS011;9420;50.876;7.012;2023-05-16T06:32:46;15.77;;;3.30;;
18580;SDS011;9420;50.876;7.012;2023-05-16T06:35:13;11.53;;;2.20;;
18580;SDS011;9420;50.876;7.012;2023-05-16T06:37:40;10.27;;;3.00;;
18580;SDS011;9420;50.876;7.012;2023-05-16T06:40:08;10.47;;;2.37;;
18580;SDS011;9420;50.876;7.012;2023-05-16T06:42:36;7.77;;;2.07;;
18580;SDS011;9420;50.876;7.012;2023-05-16T06:45:04;10.97;;;2.77;;
18580;SDS011;9420;50.876;7.012;2023-05-16T06:47:32;13.33;;;2.53;;
18580;SDS011;9420;50.876;7.012;2023-05-16T06:50:01;12.87;;;1.93;;
18580;SDS011;9420;50.876;7.012;2023-05-16T06:52:28;6.07;;;1.73;;
18580;SDS011;9420;50.876;7.012;2023-05-16T06:54:55;14.47;;;2.10;;
18580;SDS011;9420;50.876;7.012;2023-05-16T06:57:22;15.07;;;3.37;;
18580;SDS011;9420;50.876;7.012;2023-05-16T06:59:49;12.00;;;2.27;;
18580;SDS011;9420;50.876;7.012;2023-05-16T07:02:16;9.43;;;1.70;;
18580;SDS011;9420;50.876;7.012;2023-05-16T07:04:43;7.03;;;2.47;;
18580;SDS011;9420;50.876;7.012;2023-05-16T07:07:12;8.47;;;2.20;;
18580;SDS011;9420;50.876;7.012;2023-05-16T07:09:39;13.50;;;2.47;;
18580;SDS011;9420;50.876;7.012;2023-05-16T07:12:06;6.57;;;1.63;;
18580;SDS011;9420;50.876;7.012;2023-05-16T07:14:34;7.77;;;2.00;;
18580;SDS011;9420;50.876;7.012;2023-05-16T07:17:01;10.30;;;2.10;;
18580;SDS011;9420;50.876;7.012;2023-05-16T07:19:28;10.53;;;2.30;;
18580;SDS011;9420;50.876;7.012;2023-05-16T07:21:55;12.83;;;2.60;;
18580;SDS011;9420;50.876;7.012;2023-05-16T07:24:24;15.83;;;3.07;;
18580;SDS011;9420;50.876;7.012;2023-05-16T07:26:51;10.07;;;2.83;;
18580;SDS011;9420;50.876;7.012;2023-05-16T07:29:18;9.03;;;1.87;;
18580;SDS011;9420;50.876;7.012;2023-05-16T07:31:45;8.33;;;1.73;;
18580;SDS011;9420;50.876;7.012;2023-05-16T07:34:12;8.70;;;1.70;;
18580;SDS011;9420;50.876;7.012;2023-05-16T07:36:39;11.37;;;2.13;;
18580;SDS011;9420;50.876;7.012;2023-05-16T07:39:06;9.33;;;1.83;;
18580;SDS011;9420;50.876;7.012;2023-05-16T07:41:34;8.97;;;1.90;;
18580;SDS011;9420;50.876;7.012;2023-05-16T07:44:01;10.90;;;1.63;;
18580;SDS011;9420;50.876;7.012;2023-05-16T07:46:28;4.03;;;1.50;;
18580;SDS011;9420;50.876;7.012;2023-05-16T07:48:55;8.00;;;1.77;;
18580;SDS011;9420;50.876;7.012;2023-05-16T07:51:22;9.47;;;1.97;;
18580;SDS011;9420;50.876;7.012;2023-05-16T07:53:50;7.60;;;1.83;;
18580;SDS011;9420;50.876;7.012;2023-05-16T07:56:17;10.97;;;2.37;;
18580;SDS011;9420;50.876;7.012;2023-05-16T07:58:45;14.07;;;1.97;;
18580;SDS011;9420;50.876;7.012;2023-05-16T08:01:14;6.33;;;1.57;;
18580;SDS011;9420;50.876;7.012;2023-05-16T08:03:41;10.13;;;2.20;;
18580;SDS011;9420;50.876;7.012;2023-05-16T08:06:08;7.57;;;1.67;;
18580;SDS011;9420;50.876;7.012;2023-05-16T08:08:36;12.63;;;2.10;;
18580;SDS011;9420;50.876;7.012;2023-05-16T08:11:03;7.70;;;1.53;;
18580;SDS011;9420;50.876;7.012;2023-05-16T08:13:30;11.20;;;2.17;;
18580;SDS011;9420;50.876;7.012;2023-05-16T08:15:59;16.67;;;2.13;;
18580;SDS011;9420;50.876;7.012;2023-05-16T08:18:26;14.90;;;1.97;;
18580;SDS011;9420;50.876;7.012;2023-05-16T08:20:53;10.83;;;2.50;;
18580;SDS011;9420;50.876;7.012;2023-05-16T08:23:20;9.20;;;1.90;;
18580;SDS011;9420;50.876;7.012;2023-05-16T08:25:47;11.90;;;1.77;;
18580;SDS011;9420;50.876;7.012;2023-05-16T08:28:14;8.57;;;1.70;;
18580;SDS011;9420;50.876;7.012;2023-05-16T08:30:41;8.23;;;2.13;;
18580;SDS011;9420;50.876;7.012;2023-05-16T08:33:09;5.90;;;1.60;;
18580;SDS011;9420;50.876;7.012;2023-05-16T08:35:36;9.57;;;2.10;;
18580;SDS011;9420;50.876;7.012;2023-05-16T08:38:08;8.57;;;1.90;;
18580;SDS011;9420;50.876;7.012;2023-05-16T08:40:35;6.60;;;2.03;;
18580;SDS011;9420;50.876;7.012;2023-05-16T08:43:03;11.33;;;1.93;;
18580;SDS011;9420;50.876;7.012;2023-05-16T08:45:30;9.63;;;2.53;;
18580;SDS011;9420;50.876;7.012;2023-05-16T08:47:57;10.10;;;1.70;;
18580;SDS011;9420;50.876;7.012;2023-05-16T08:50:29;8.80;;;2.27;;
18580;SDS011;9420;50.876;7.012;2023-05-16T08:52:57;5.60;;;1.60;;
18580;SDS011;9420;50.876;7.012;2023-05-16T08:55:31;7.27;;;2.67;;
18580;SDS011;9420;50.876;7.012;2023-05-16T08:57:59;5.17;;;2.40;;
18580;SDS011;9420;50.876;7.012;2023-05-16T09:00:27;8.70;;;1.87;;
18580;SDS011;9420;50.876;7.012;2023-05-16T09:02:56;9.03;;;2.50;;
18580;SDS011;9420;50.876;7.012;2023-05-16T09:05:24;8.37;;;2.47;;
18580;SDS011;9420;50.876;7.012;2023-05-16T09:07:56;9.07;;;3.00;;
18580;SDS011;9420;50.876;7.012;2023-05-16T09:10:23;7.03;;;2.63;;
18580;SDS011;9420;50.876;7.012;2023-05-16T09:12:51;7.00;;;2.00;;
18580;SDS011;9420;50.876;7.012;2023-05-16T09:15:18;9.67;;;2.13;;
18580;SDS011;9420;50.876;7.012;2023-05-16T09:17:45;10.23;;;2.00;;
18580;SDS011;9420;50.876;7.012;2023-05-16T09:20:13;7.80;;;1.77;;
18580;SDS011;9420;50.876;7.012;2023-05-16T09:22:51;11.27;;;2.30;;
18580;SDS011;9420;50.876;7.012;2023-05-16T09:25:22;6.07;;;2.17;;
18580;SDS011;9420;50.876;7.012;2023-05-16T09:27:52;5.60;;;1.47;;
18580;SDS011;9420;50.876;7.012;2023-05-16T09:30:20;3.60;;;1.50;;
18580;SDS011;9420;50.876;7.012;2023-05-16T09:32:50;5.07;;;1.33;;
18580;SDS011;9420;50.876;7.012;2023-05-16T09:35:18;6.83;;;1.43;;
18580;SDS011;9420;50.876;7.012;2023-05-16T09:37:46;6.20;;;1.00;;
18580;SDS011;9420;50.876;7.012;2023-05-16T09:40:14;6.37;;;1.40;;
18580;SDS011;9420;50.876;7.012;2023-05-16T09:42:46;10.57;;;2.03;;
18580;SDS011;9420;50.876;7.012;2023-05-16T09:45:26;6.80;;;1.70;;
18580;SDS011;9420;50.876;7.012;2023-05-16T09:47:57;10.47;;;2.23;;
18580;SDS011;9420;50.876;7.012;2023-05-16T09:50:31;8.27;;;1.83;;
18580;SDS011;9420;50.876;7.012;2023-05-16T09:52:59;7.43;;;1.87;;
18580;SDS011;9420;50.876;7.012;2023-05-16T09:55:26;5.20;;;1.93;;
18580;SDS011;9420;50.876;7.012;2023-05-16T09:57:55;8.47;;;2.23;;
18580;SDS011;9420;50.876;7.012;2023-05-16T10:00:27;7.50;;;1.93;;
18580;SDS011;9420;50.876;7.012;2023-05-16T10:02:56;10.73;;;1.97;;
18580;SDS011;9420;50.876;7.012;2023-05-16T10:05:25;6.87;;;1.93;;
18580;SDS011;9420;50.876;7.012;2023-05-16T10:07:53;7.37;;;1.70;;
18580;SDS011;9420;50.876;7.012;2023-05-16T10:10:22;9.53;;;3.17;;
18580;SDS011;9420;50.876;7.012;2023-05-16T10:12:50;3.47;;;1.30;;
18580;SDS011;9420;50.876;7.012;2023-05-16T10:15:23;9.20;;;2.23;;
18580;SDS011;9420;50.876;7.012;2023-05-16T10:17:53;3.03;;;1.17;;
18580;SDS011;9420;50.876;7.012;2023-05-16T10:20:24;8.03;;;2.00;;
18580;SDS011;9420;50.876;7.012;2023-05-16T10:22:52;7.57;;;1.97;;
18580;SDS011;9420;50.876;7.012;2023-05-16T10:25:24;12.30;;;2.07;;
18580;SDS011;9420;50.876;7.012;2023-05-16T10:27:57;5.13;;;1.33;;
18580;SDS011;9420;50.876;7.012;2023-05-16T10:30:27;7.73;;;1.60;;
18580;SDS011;9420;50.876;7.012;2023-05-16T10:32:54;7.87;;;2.10;;
18580;SDS011;9420;50.876;7.012;2023-05-16T10:35:24;4.03;;;1.60;;
18580;SDS011;9420;50.876;7.012;2023-05-16T10:37:52;6.90;;;1.67;;
18580;SDS011;9420;50.876;7.012;2023-05-16T10:40:20;4.00;;;0.90;;
18580;SDS011;9420;50.876;7.012;2023-05-16T10:42:54;5.03;;;1.30;;
18580;SDS011;9420;50.876;7.012;2023-05-16T10:45:22;4.33;;;1.20;;
18580;SDS011;9420;50.876;7.012;2023-05-16T10:47:51;4.30;;;1.80;;
18580;SDS011;9420;50.876;7.012;2023-05-16T10:50:29;7.63;;;1.60;;
18580;SDS011;9420;50.876;7.012;2023-05-16T10:53:11;4.87;;;1.57;;
18580;SDS011;9420;50.876;7.012;2023-05-16T10:55:47;6.67;;;1.10;;
18580;SDS011;9420;50.876;7.012;2023-05-16T10:58:39;5.20;;;1.10;;
18580;SDS011;9420;50.876;7.012;2023-05-16T11:01:14;7.27;;;1.03;;
18580;SDS011;9420;50.876;7.012;2023-05-16T11:04:00;4.67;;;1.37;;
18580;SDS011;9420;50.876;7.012;2023-05-16T11:06:33;5.13;;;1.40;;
18580;SDS011;9420;50.876;7.012;2023-05-16T11:09:16;3.87;;;0.80;;
18580;SDS011;9420;50.876;7.012;2023-05-16T11:14:36;10.23;;;1.63;;
18580;SDS011;9420;50.876;7.012;2023-05-16T11:17:06;1.70;;;0.80;;
18580;SDS011;9420;50.876;7.012;2023-05-16T11:19:42;1.47;;;1.00;;
18580;SDS011;9420;50.876;7.012;2023-05-16T11:22:11;4.97;;;1.40;;
18580;SDS011;9420;50.876;7.012;2023-05-16T11:24:58;3.47;;;1.53;;
18580;SDS011;9420;50.876;7.012;2023-05-16T11:27:28;4.83;;;1.53;;
18580;SDS011;9420;50.876;7.012;2023-05-16T11:30:00;6.13;;;1.53;;
18580;SDS011;9420;50.876;7.012;2023-05-16T11:32:39;3.27;;;1.10;;
18580;SDS011;9420;50.876;7.012;2023-05-16T11:35:11;4.83;;;1.80;;
18580;SDS011;9420;50.876;7.012;2023-05-16T11:37:39;5.93;;;1.70;;
18580;SDS011;9420;50.876;7.012;2023-05-16T11:40:08;3.80;;;1.27;;
18580;SDS011;9420;50.876;7.012;2023-05-16T11:42:39;5.93;;;1.37;;
18580;SDS011;9420;50.876;7.012;2023-05-16T11:45:08;4.90;;;1.63;;
18580;SDS011;9420;50.876;7.012;2023-05-16T11:47:38;7.18;;;1.98;;
18580;SDS011;9420;50.876;7.012;2023-05-16T11:50:07;5.87;;;1.77;;
18580;SDS011;9420;50.876;7.012;2023-05-16T11:52:40;9.97;;;1.57;;
18580;SDS011;9420;50.876;7.012;2023-05-16T11:55:11;5.63;;;1.57;;
18580;SDS011;9420;50.876;7.012;2023-05-16T11:57:42;5.10;;;1.53;;
18580;SDS011;9420;50.876;7.012;2023-05-16T12:00:13;3.17;;;1.23;;
18580;SDS011;9420;50.876;7.012;2023-05-16T12:02:42;9.20;;;1.97;;
18580;SDS011;9420;50.876;7.012;2023-05-16T12:05:10;2.33;;;1.40;;
18580;SDS011;9420;50.876;7.012;2023-05-16T12:07:40;5.07;;;2.17;;
18580;SDS011;9420;50.876;7.012;2023-05-16T12:10:09;4.70;;;1.60;;
18580;SDS011;9420;50.876;7.012;2023-05-16T12:12:39;6.03;;;1.70;;
18580;SDS011;9420;50.876;7.012;2023-05-16T12:15:08;6.07;;;1.40;;
18580;SDS011;9420;50.876;7.012;2023-05-16T12:17:37;2.50;;;1.30;;
18580;SDS011;9420;50.876;7.012;2023-05-16T12:20:06;6.77;;;1.50;;
18580;SDS011;9420;50.876;7.012;2023-05-16T12:22:39;3.60;;;1.23;;
18580;SDS011;9420;50.876;7.012;2023-05-16T12:25:20;8.37;;;1.97;;
18580;SDS011;9420;50.876;7.012;2023-05-16T12:27:49;2.63;;;1.60;;
18580;SDS011;9420;50.876;7.012;2023-05-16T12:30:18;5.97;;;1.27;;
18580;SDS011;9420;50.876;7.012;2023-05-16T12:32:52;10.80;;;1.58;;
18580;SDS011;9420;50.876;7.012;2023-05-16T12:35:21;3.38;;;1.30;;
18580;SDS011;9420;50.876;7.012;2023-05-16T12:37:50;4.57;;;1.10;;
18580;SDS011;9420;50.876;7.012;2023-05-16T12:40:19;3.30;;;1.10;;
18580;SDS011;9420;50.876;7.012;2023-05-16T12:42:48;2.42;;;1.17;;
18580;SDS011;9420;50.876;7.012;2023-05-16T12:45:16;6.38;;;1.27;;
18580;SDS011;9420;50.876;7.012;2023-05-16T12:47:44;3.97;;;1.00;;
18580;SDS011;9420;50.876;7.012;2023-05-16T12:50:12;4.55;;;1.15;;
18580;SDS011;9420;50.876;7.012;2023-05-16T12:52:47;4.28;;;1.02;;
18580;SDS011;9420;50.876;7.012;2023-05-16T12:55:17;3.72;;;1.25;;
18580;SDS011;9420;50.876;7.012;2023-05-16T12:57:47;3.75;;;0.93;;
18580;SDS011;9420;50.876;7.012;2023-05-16T13:00:16;2.05;;;0.80;;
18580;SDS011;9420;50.876;7.012;2023-05-16T13:02:45;2.67;;;0.80;;
18580;SDS011;9420;50.876;7.012;2023-05-16T13:05:13;3.45;;;0.75;;
18580;SDS011;9420;50.876;7.012;2023-05-16T13:07:41;6.13;;;1.92;;
18580;SDS011;9420;50.876;7.012;2023-05-16T13:10:10;4.47;;;0.93;;
18580;SDS011;9420;50.876;7.012;2023-05-16T13:12:38;5.17;;;1.00;;
18580;SDS011;9420;50.876;7.012;2023-05-16T13:15:07;5.13;;;1.10;;
18580;SDS011;9420;50.876;7.012;2023-05-16T13:17:35;2.23;;;0.80;;
18580;SDS011;9420;50.876;7.012;2023-05-16T13:20:05;6.33;;;1.60;;
18580;SDS011;9420;50.876;7.012;2023-05-16T13:22:34;4.90;;;1.43;;
18580;SDS011;9420;50.876;7.012;2023-05-16T13:25:01;5.70;;;1.20;;
18580;SDS011;9420;50.876;7.012;2023-05-16T13:27:31;3.17;;;0.83;;
18580;SDS011;9420;50.876;7.012;2023-05-16T13:29:59;4.63;;;1.23;;
18580;SDS011;9420;50.876;7.012;2023-05-16T13:32:27;3.67;;;1.33;;
18580;SDS011;9420;50.876;7.012;2023-05-16T13:34:54;2.97;;;1.10;;
18580;SDS011;9420;50.876;7.012;2023-05-16T13:37:21;5.70;;;1.38;;
18580;SDS011;9420;50.876;7.012;2023-05-16T13:39:49;4.15;;;1.02;;
18580;SDS011;9420;50.876;7.012;2023-05-16T13:42:18;3.50;;;1.10;;
18580;SDS011;9420;50.876;7.012;2023-05-16T13:44:47;3.45;;;1.00;;
18580;SDS011;9420;50.876;7.012;2023-05-16T13:47:15;3.63;;;0.88;;
18580;SDS011;9420;50.876;7.012;2023-05-16T13:49:42;6.40;;;0.85;;
18580;SDS011;9420;50.876;7.012;2023-05-16T13:52:09;5.88;;;1.15;;
18580;SDS011;9420;50.876;7.012;2023-05-16T13:54:36;2.95;;;0.50;;
18580;SDS011;9420;50.876;7.012;2023-05-16T13:57:04;10.25;;;1.70;;
18580;SDS011;9420;50.876;7.012;2023-05-16T13:59:31;2.53;;;0.93;;
18580;SDS011;9420;50.876;7.012;2023-05-16T14:01:59;3.38;;;1.08;;
18580;SDS011;9420;50.876;7.012;2023-05-16T14:04:27;2.53;;;0.80;;
18580;SDS011;9420;50.876;7.012;2023-05-16T14:06:54;3.67;;;1.55;;
18580;SDS011;9420;50.876;7.012;2023-05-16T14:09:21;2.80;;;0.98;;
18580;SDS011;9420;50.876;7.012;2023-05-16T14:11:48;4.18;;;1.10;;
18580;SDS011;9420;50.876;7.012;2023-05-16T14:14:15;1.98;;;0.57;;
18580;SDS011;9420;50.876;7.012;2023-05-16T14:16:42;2.75;;;0.90;;
18580;SDS011;9420;50.876;7.012;2023-05-16T14:19:11;1.60;;;0.90;;
18580;SDS011;9420;50.876;7.012;2023-05-16T14:21:38;3.30;;;0.90;;
18580;SDS011;9420;50.876;7.012;2023-05-16T14:24:06;6.30;;;0.90;;
18580;SDS011;9420;50.876;7.012;2023-05-16T14:26:33;4.37;;;0.90;;
18580;SDS011;9420;50.876;7.012;2023-05-16T14:29:00;1.83;;;0.90;;
18580;SDS011;9420;50.876;7.012;2023-05-16T14:31:27;1.63;;;0.70;;
18580;SDS011;9420;50.876;7.012;2023-05-16T14:33:54;2.33;;;1.20;;
18580;SDS011;9420;50.876;7.012;2023-05-16T14:36:24;3.20;;;0.93;;
18580;SDS011;9420;50.876;7.012;2023-05-16T14:38:51;4.67;;;1.33;;
18580;SDS011;9420;50.876;7.012;2023-05-16T14:41:18;5.40;;;1.23;;
18580;SDS011;9420;50.876;7.012;2023-05-16T14:43:45;7.40;;;1.40;;
18580;SDS011;9420;50.876;7.012;2023-05-16T14:46:12;3.30;;;0.70;;
18580;SDS011;9420;50.876;7.012;2023-05-16T14:48:41;6.07;;;1.20;;
18580;SDS011;9420;50.876;7.012;2023-05-16T14:51:08;3.60;;;0.93;;
18580;SDS011;9420;50.876;7.012;2023-05-16T14:53:37;2.07;;;0.93;;
18580;SDS011;9420;50.876;7.012;2023-05-16T14:56:04;4.80;;;1.10;;
18580;SDS011;9420;50.876;7.012;2023-05-16T14:58:31;2.07;;;1.00;;
18580;SDS011;9420;50.876;7.012;2023-05-16T15:00:58;3.80;;;1.17;;
18580;SDS011;9420;50.876;7.012;2023-05-16T15:03:25;6.50;;;1.43;;
18580;SDS011;9420;50.876;7.012;2023-05-16T15:05:52;3.53;;;1.30;;